sensor_id;sensor_type;location;lat;lon;timestamp;pressure;altitude;pressure_sealevel;temperature;humidity
54270;BME280;40181;51.560;13.000;2022-09-01T00:00:00;101322.19;;;16.00;62.95
54270;BME280;40181;51.560;13.000;2022-09-01T00:02:32;101326.53;;;15.84;62.77
54270;BME280;40181;51.560;13.000;2022-09-01T00:05:02;101323.94;;;15.92;62.41
54270;BME280;40181;51.560;13.000;2022-09-01T00:07:32;101312.38;;;15.83;62.64
54270;BME280;40181;51.560;13.000;2022-09-01T00:10:05;101318.50;;;15.60;63.63
54270;BME280;40181;51.560;13.000;2022-09-01T00:12:35;101314.88;;;15.43;63.71
54270;BME280;40181;51.560;13.000;2022-09-01T00:15:10;101320.19;;;15.47;64.71
54270;BME280;40181;51.560;13.000;2022-09-01T00:17:41;101312.25;;;15.47;63.99
54270;BME280;40181;51.560;13.000;2022-09-01T00:20:10;101316.72;;;15.62;63.73
54270;BME280;40181;51.560;13.000;2022-09-01T00:22:39;101315.84;;;15.65;63.83
54270;BME280;40181;51.560;13.000;2022-09-01T00:25:10;101325.50;;;15.51;63.80
54270;BME280;40181;51.560;13.000;2022-09-01T00:27:39;101322.81;;;15.44;64.60
54270;BME280;40181;51.560;13.000;2022-09-01T00:30:08;101325.53;;;15.57;64.17
54270;BME280;40181;51.560;13.000;2022-09-01T00:32:38;101321.16;;;15.65;64.18
54270;BME280;40181;51.560;13.000;2022-09-01T00:35:10;101322.03;;;15.67;64.24
54270;BME280;40181;51.560;13.000;2022-09-01T00:37:39;101315.88;;;15.67;64.08
54270;BME280;40181;51.560;13.000;2022-09-01T00:40:12;101317.50;;;15.40;65.02
54270;BME280;40181;51.560;13.000;2022-09-01T00:42:43;101326.38;;;15.53;64.95
54270;BME280;40181;51.560;13.000;2022-09-01T00:45:13;101326.38;;;15.46;65.06
54270;BME280;40181;51.560;13.000;2022-09-01T00:47:43;101330.00;;;15.67;65.04
54270;BME280;40181;51.560;13.000;2022-09-01T00:50:12;101324.59;;;15.47;65.31
54270;BME280;40181;51.560;13.000;2022-09-01T00:52:45;101320.13;;;15.33;65.67
54270;BME280;40181;51.560;13.000;2022-09-01T00:55:21;101323.72;;;15.46;66.87
54270;BME280;40181;51.560;13.000;2022-09-01T00:57:51;101320.25;;;15.61;65.59
54270;BME280;40181;51.560;13.000;2022-09-01T01:00:21;101320.22;;;15.57;65.73
54270;BME280;40181;51.560;13.000;2022-09-01T01:02:52;101320.34;;;15.77;65.00
54270;BME280;40181;51.560;13.000;2022-09-01T01:05:22;101315.91;;;15.77;65.00
54270;BME280;40181;51.560;13.000;2022-09-01T01:07:53;101319.41;;;15.69;64.98
54270;BME280;40181;51.560;13.000;2022-09-01T01:10:26;101323.91;;;15.85;64.43
54270;BME280;40181;51.560;13.000;2022-09-01T01:13:00;101315.06;;;15.85;65.38
54270;BME280;40181;51.560;13.000;2022-09-01T01:15:29;101322.13;;;15.83;65.50
54270;BME280;40181;51.560;13.000;2022-09-01T01:17:58;101312.41;;;15.88;64.88
54270;BME280;40181;51.560;13.000;2022-09-01T01:20:27;101307.97;;;15.79;65.69
54270;BME280;40181;51.560;13.000;2022-09-01T01:23:15;101310.63;;;15.84;65.87
54270;BME280;40181;51.560;13.000;2022-09-01T01:25:51;101311.50;;;15.84;66.08
54270;BME280;40181;51.560;13.000;2022-09-01T01:28:23;101313.25;;;15.74;65.74
54270;BME280;40181;51.560;13.000;2022-09-01T01:30:56;101309.72;;;15.83;66.29
54270;BME280;40181;51.560;13.000;2022-09-01T01:33:28;101308.81;;;15.70;66.94
54270;BME280;40181;51.560;13.000;2022-09-01T01:35:58;101314.16;;;15.81;66.24
54270;BME280;40181;51.560;13.000;2022-09-01T01:38:31;101315.00;;;15.68;66.73
54270;BME280;40181;51.560;13.000;2022-09-01T01:41:03;101320.25;;;15.61;67.00
54270;BME280;40181;51.560;13.000;2022-09-01T01:43:32;101309.69;;;15.71;66.73
54270;BME280;40181;51.560;13.000;2022-09-01T01:46:02;101309.69;;;15.69;66.49
54270;BME280;40181;51.560;13.000;2022-09-01T01:48:34;101323.69;;;15.45;66.86
54270;BME280;40181;51.560;13.000;2022-09-01T01:51:05;101313.22;;;15.68;66.81
54270;BME280;40181;51.560;13.000;2022-09-01T01:53:34;101318.38;;;15.40;67.55
54270;BME280;40181;51.560;13.000;2022-09-01T01:56:07;101314.81;;;15.33;67.65
54270;BME280;40181;51.560;13.000;2022-09-01T01:58:35;101315.63;;;15.25;67.69
54270;BME280;40181;51.560;13.000;2022-09-01T02:01:04;101321.00;;;15.35;67.63
54270;BME280;40181;51.560;13.000;2022-09-01T02:03:35;101313.63;;;14.89;68.82
54270;BME280;40181;51.560;13.000;2022-09-01T02:06:05;101321.63;;;14.97;68.77
54270;BME280;40181;51.560;13.000;2022-09-01T02:08:36;101316.94;;;14.65;69.15
54270;BME280;40181;51.560;13.000;2022-09-01T02:11:08;101319.94;;;15.05;68.20
54270;BME280;40181;51.560;13.000;2022-09-01T02:13:37;101315.47;;;14.95;68.47
54270;BME280;40181;51.560;13.000;2022-09-01T02:16:06;101315.44;;;14.90;69.30
54270;BME280;40181;51.560;13.000;2022-09-01T02:18:38;101310.91;;;14.78;68.82
54270;BME280;40181;51.560;13.000;2022-09-01T02:21:09;101315.06;;;14.53;69.29
54270;BME280;40181;51.560;13.000;2022-09-01T02:23:39;101322.09;;;14.51;69.85
54270;BME280;40181;51.560;13.000;2022-09-01T02:26:11;101322.91;;;14.42;70.03
54270;BME280;40181;51.560;13.000;2022-09-01T02:28:41;101317.63;;;14.45;70.15
54270;BME280;40181;51.560;13.000;2022-09-01T02:31:11;101315.03;;;14.47;69.71
54270;BME280;40181;51.560;13.000;2022-09-01T02:33:44;101318.44;;;14.35;70.46
54270;BME280;40181;51.560;13.000;2022-09-01T02:36:15;101311.53;;;14.52;70.05
54270;BME280;40181;51.560;13.000;2022-09-01T02:38:45;101315.19;;;14.65;69.38
54270;BME280;40181;51.560;13.000;2022-09-01T02:41:18;101316.06;;;14.68;69.47
54270;BME280;40181;51.560;13.000;2022-09-01T02:43:53;101322.91;;;14.44;70.33
54270;BME280;40181;51.560;13.000;2022-09-01T02:46:22;101320.22;;;14.39;70.01
54270;BME280;40181;51.560;13.000;2022-09-01T02:48:52;101318.44;;;14.38;70.13
54270;BME280;40181;51.560;13.000;2022-09-01T02:51:24;101314.78;;;14.25;70.49
54270;BME280;40181;51.560;13.000;2022-09-01T02:53:53;101311.28;;;14.24;71.19
54270;BME280;40181;51.560;13.000;2022-09-01T02:56:25;101320.00;;;14.17;71.46
54270;BME280;40181;51.560;13.000;2022-09-01T02:58:54;101311.19;;;14.15;71.29
54270;BME280;40181;51.560;13.000;2022-09-01T03:01:27;101318.09;;;14.04;71.93
54270;BME280;40181;51.560;13.000;2022-09-01T03:03:58;101311.19;;;14.18;71.48
54270;BME280;40181;51.560;13.000;2022-09-01T03:06:29;101317.19;;;14.02;71.93
54270;BME280;40181;51.560;13.000;2022-09-01T03:09:02;101306.59;;;13.99;72.23
54270;BME280;40181;51.560;13.000;2022-09-01T03:11:36;101317.25;;;14.05;72.00
54270;BME280;40181;51.560;13.000;2022-09-01T03:14:06;101308.47;;;14.12;71.92
54270;BME280;40181;51.560;13.000;2022-09-01T03:16:36;101318.19;;;14.13;71.56
54270;BME280;40181;51.560;13.000;2022-09-01T03:19:06;101323.16;;;13.85;73.10
54270;BME280;40181;51.560;13.000;2022-09-01T03:21:36;101314.41;;;13.89;72.53
54270;BME280;40181;51.560;13.000;2022-09-01T03:24:06;101310.88;;;13.87;72.69
54270;BME280;40181;51.560;13.000;2022-09-01T03:26:41;101308.09;;;13.76;73.38
54270;BME280;40181;51.560;13.000;2022-09-01T03:29:11;101319.63;;;13.85;73.15
54270;BME280;40181;51.560;13.000;2022-09-01T03:31:40;101314.41;;;13.91;72.79
54270;BME280;40181;51.560;13.000;2022-09-01T03:34:09;101311.72;;;13.86;73.16
54270;BME280;40181;51.560;13.000;2022-09-01T03:36:40;101313.47;;;13.84;73.48
54270;BME280;40181;51.560;13.000;2022-09-01T03:39:14;101304.84;;;14.01;72.89
54270;BME280;40181;51.560;13.000;2022-09-01T03:41:46;101314.44;;;13.92;72.60
54270;BME280;40181;51.560;13.000;2022-09-01T03:44:15;101312.75;;;13.97;73.13
54270;BME280;40181;51.560;13.000;2022-09-01T03:46:45;101320.47;;;13.79;73.46
54270;BME280;40181;51.560;13.000;2022-09-01T03:49:14;101321.44;;;13.89;73.30
54270;BME280;40181;51.560;13.000;2022-09-01T03:51:49;101311.75;;;13.91;73.12
54270;BME280;40181;51.560;13.000;2022-09-01T03:54:19;101309.25;;;14.00;73.10
54270;BME280;40181;51.560;13.000;2022-09-01T03:56:51;101316.09;;;13.82;73.77
54270;BME280;40181;51.560;13.000;2022-09-01T03:59:22;101322.22;;;13.80;73.87
54270;BME280;40181;51.560;13.000;2022-09-01T04:01:51;101311.31;;;13.52;74.56
54270;BME280;40181;51.560;13.000;2022-09-01T04:04:21;101318.47;;;13.62;74.82
54270;BME280;40181;51.560;13.000;2022-09-01T04:06:50;101320.25;;;13.63;74.62
54270;BME280;40181;51.560;13.000;2022-09-01T04:09:19;101312.31;;;13.60;75.06
54270;BME280;40181;51.560;13.000;2022-09-01T04:11:51;101314.81;;;13.51;75.47
54270;BME280;40181;51.560;13.000;2022-09-01T04:14:20;101321.97;;;13.60;75.32
54270;BME280;40181;51.560;13.000;2022-09-01T04:16:49;101307.13;;;13.71;74.59
54270;BME280;40181;51.560;13.000;2022-09-01T04:19:32;101316.94;;;13.81;74.83
54270;BME280;40181;51.560;13.000;2022-09-01T04:22:03;101316.03;;;13.76;74.78
54270;BME280;40181;51.560;13.000;2022-09-01T04:24:37;101308.19;;;13.84;74.56
54270;BME280;40181;51.560;13.000;2022-09-01T04:27:12;101322.13;;;13.72;74.97
54270;BME280;40181;51.560;13.000;2022-09-01T04:29:42;101310.72;;;13.73;75.26
54270;BME280;40181;51.560;13.000;2022-09-01T04:32:11;101315.19;;;13.82;74.90
54270;BME280;40181;51.560;13.000;2022-09-01T04:34:41;101315.25;;;13.87;74.97
54270;BME280;40181;51.560;13.000;2022-09-01T04:37:10;101313.50;;;13.86;74.93
54270;BME280;40181;51.560;13.000;2022-09-01T04:39:42;101318.75;;;13.84;75.51
54270;BME280;40181;51.560;13.000;2022-09-01T04:42:19;101320.63;;;13.93;75.18
54270;BME280;40181;51.560;13.000;2022-09-01T04:44:48;101323.25;;;13.91;75.11
54270;BME280;40181;51.560;13.000;2022-09-01T04:47:17;101320.50;;;13.85;75.67
54270;BME280;40181;51.560;13.000;2022-09-01T04:49:54;101327.41;;;13.74;76.02
54270;BME280;40181;51.560;13.000;2022-09-01T04:52:24;101316.94;;;13.80;75.77
54270;BME280;40181;51.560;13.000;2022-09-01T04:54:56;101319.63;;;13.86;76.30
54270;BME280;40181;51.560;13.000;2022-09-01T04:57:28;101332.88;;;13.88;75.73
54270;BME280;40181;51.560;13.000;2022-09-01T04:59:57;101317.97;;;13.93;75.63
54270;BME280;40181;51.560;13.000;2022-09-01T05:02:25;101328.44;;;13.85;76.04
54270;BME280;40181;51.560;13.000;2022-09-01T05:04:54;101328.59;;;13.97;75.52
54270;BME280;40181;51.560;13.000;2022-09-01T05:07:23;101328.69;;;14.05;75.63
54270;BME280;40181;51.560;13.000;2022-09-01T05:09:52;101328.69;;;14.08;75.26
54270;BME280;40181;51.560;13.000;2022-09-01T05:12:21;101326.09;;;14.10;75.55
54270;BME280;40181;51.560;13.000;2022-09-01T05:14:54;101327.75;;;14.00;76.14
54270;BME280;40181;51.560;13.000;2022-09-01T05:17:26;101321.81;;;14.20;75.34
54270;BME280;40181;51.560;13.000;2022-09-01T05:19:55;101320.06;;;14.22;75.26
54270;BME280;40181;51.560;13.000;2022-09-01T05:22:25;101320.88;;;14.16;75.60
54270;BME280;40181;51.560;13.000;2022-09-01T05:24:55;101327.94;;;14.20;75.63
54270;BME280;40181;51.560;13.000;2022-09-01T05:27:27;101332.44;;;14.28;75.83
54270;BME280;40181;51.560;13.000;2022-09-01T05:29:58;101325.38;;;14.23;75.53
54270;BME280;40181;51.560;13.000;2022-09-01T05:32:32;101313.16;;;14.36;75.95
54270;BME280;40181;51.560;13.000;2022-09-01T05:35:01;101323.69;;;14.32;75.84
54270;BME280;40181;51.560;13.000;2022-09-01T05:37:32;101327.28;;;14.40;75.33
54270;BME280;40181;51.560;13.000;2022-09-01T05:40:02;101328.19;;;14.44;75.21
54270;BME280;40181;51.560;13.000;2022-09-01T05:42:33;101322.03;;;14.45;76.19
54270;BME280;40181;51.560;13.000;2022-09-01T05:45:07;101323.78;;;14.41;75.49
54270;BME280;40181;51.560;13.000;2022-09-01T05:47:38;101337.00;;;14.43;75.68
54270;BME280;40181;51.560;13.000;2022-09-01T05:50:07;101331.88;;;14.60;75.30
54270;BME280;40181;51.560;13.000;2022-09-01T05:52:37;101345.09;;;14.61;74.46
54270;BME280;40181;51.560;13.000;2022-09-01T05:55:08;101331.06;;;14.65;74.30
54270;BME280;40181;51.560;13.000;2022-09-01T05:57:39;101328.34;;;14.59;74.04
54270;BME280;40181;51.560;13.000;2022-09-01T06:00:14;101339.00;;;14.69;74.44
54270;BME280;40181;51.560;13.000;2022-09-01T06:02:44;101331.06;;;14.65;74.50
54270;BME280;40181;51.560;13.000;2022-09-01T06:05:13;101330.31;;;14.77;74.52
54270;BME280;40181;51.560;13.000;2022-09-01T06:07:42;101334.72;;;14.80;74.60
54270;BME280;40181;51.560;13.000;2022-09-01T06:10:11;101323.22;;;14.76;75.46
54270;BME280;40181;51.560;13.000;2022-09-01T06:12:40;101339.03;;;14.70;75.34
54270;BME280;40181;51.560;13.000;2022-09-01T06:15:09;101330.31;;;14.77;74.58
54270;BME280;40181;51.560;13.000;2022-09-01T06:17:42;101338.34;;;14.91;73.80
54270;BME280;40181;51.560;13.000;2022-09-01T06:20:11;101329.47;;;14.85;73.92
54270;BME280;40181;51.560;13.000;2022-09-01T06:22:42;101337.41;;;14.85;74.25
54270;BME280;40181;51.560;13.000;2022-09-01T06:25:11;101328.66;;;14.92;73.43
54270;BME280;40181;51.560;13.000;2022-09-01T06:27:41;101326.94;;;14.97;73.74
54270;BME280;40181;51.560;13.000;2022-09-01T06:30:12;101330.47;;;14.99;73.52
54270;BME280;40181;51.560;13.000;2022-09-01T06:32:47;101333.09;;;14.98;74.19
54270;BME280;40181;51.560;13.000;2022-09-01T06:35:16;101336.78;;;15.20;72.96
54270;BME280;40181;51.560;13.000;2022-09-01T06:37:46;101339.47;;;15.23;72.58
54270;BME280;40181;51.560;13.000;2022-09-01T06:40:15;101344.72;;;15.17;73.60
54270;BME280;40181;51.560;13.000;2022-09-01T06:42:44;101348.25;;;15.20;72.61
54270;BME280;40181;51.560;13.000;2022-09-01T06:45:16;101337.69;;;15.22;72.93
54270;BME280;40181;51.560;13.000;2022-09-01T06:47:49;101343.88;;;15.26;72.89
54270;BME280;40181;51.560;13.000;2022-09-01T06:50:21;101342.19;;;15.37;72.26
54270;BME280;40181;51.560;13.000;2022-09-01T06:52:52;101350.03;;;15.21;73.09
54270;BME280;40181;51.560;13.000;2022-09-01T06:55:33;101353.59;;;15.27;72.60
54270;BME280;40181;51.560;13.000;2022-09-01T06:58:03;101345.69;;;15.33;72.96
54270;BME280;40181;51.560;13.000;2022-09-01T07:00:32;101348.44;;;15.45;72.03
54270;BME280;40181;51.560;13.000;2022-09-01T07:03:08;101345.78;;;15.45;72.22
54270;BME280;40181;51.560;13.000;2022-09-01T07:05:38;101356.34;;;15.42;73.63
54270;BME280;40181;51.560;13.000;2022-09-01T07:08:09;101359.03;;;15.45;73.50
54270;BME280;40181;51.560;13.000;2022-09-01T07:10:42;101350.19;;;15.45;73.13
54270;BME280;40181;51.560;13.000;2022-09-01T07:13:14;101352.81;;;15.43;72.12
54270;BME280;40181;51.560;13.000;2022-09-01T07:15:49;101347.59;;;15.62;72.57
54270;BME280;40181;51.560;13.000;2022-09-01T07:18:22;101346.75;;;15.61;71.89
54270;BME280;40181;51.560;13.000;2022-09-01T07:20:53;101358.22;;;15.63;71.75
54270;BME280;40181;51.560;13.000;2022-09-01T07:23:22;101359.09;;;15.62;72.07
54270;BME280;40181;51.560;13.000;2022-09-01T07:25:51;101361.75;;;15.62;72.31
54270;BME280;40181;51.560;13.000;2022-09-01T07:28:23;101354.72;;;15.69;71.78
54270;BME280;40181;51.560;13.000;2022-09-01T07:30:54;101354.78;;;15.77;70.18
54270;BME280;40181;51.560;13.000;2022-09-01T07:33:25;101346.81;;;15.80;69.55
54270;BME280;40181;51.560;13.000;2022-09-01T07:35:55;101352.13;;;15.82;69.49
54270;BME280;40181;51.560;13.000;2022-09-01T07:38:26;101347.78;;;15.92;69.65
54270;BME280;40181;51.560;13.000;2022-09-01T07:40:55;101354.78;;;15.80;69.48
54270;BME280;40181;51.560;13.000;2022-09-01T07:43:24;101361.03;;;15.92;69.75
54270;BME280;40181;51.560;13.000;2022-09-01T07:45:56;101358.41;;;15.93;69.05
54270;BME280;40181;51.560;13.000;2022-09-01T07:48:28;101360.06;;;15.79;68.91
54270;BME280;40181;51.560;13.000;2022-09-01T07:50:57;101349.56;;;15.94;68.83
54270;BME280;40181;51.560;13.000;2022-09-01T07:53:26;101359.31;;;16.09;68.89
54270;BME280;40181;51.560;13.000;2022-09-01T07:55:57;101355.75;;;15.95;68.43
54270;BME280;40181;51.560;13.000;2022-09-01T07:58:27;101356.66;;;16.00;69.56
54270;BME280;40181;51.560;13.000;2022-09-01T08:00:58;101355.84;;;16.26;68.73
54270;BME280;40181;51.560;13.000;2022-09-01T08:03:30;101355.78;;;16.10;67.66
54270;BME280;40181;51.560;13.000;2022-09-01T08:06:01;101353.19;;;16.26;67.97
54270;BME280;40181;51.560;13.000;2022-09-01T08:08:30;101358.53;;;16.41;68.86
54270;BME280;40181;51.560;13.000;2022-09-01T08:10:59;101357.63;;;16.28;67.56
54270;BME280;40181;51.560;13.000;2022-09-01T08:13:28;101370.03;;;16.40;68.00
54270;BME280;40181;51.560;13.000;2022-09-01T08:15:57;101358.50;;;16.38;67.96
54270;BME280;40181;51.560;13.000;2022-09-01T08:18:26;101360.34;;;16.53;67.84
54270;BME280;40181;51.560;13.000;2022-09-01T08:20:57;101347.94;;;16.63;67.58
54270;BME280;40181;51.560;13.000;2022-09-01T08:23:26;101362.09;;;16.62;66.60
54270;BME280;40181;51.560;13.000;2022-09-01T08:25:55;101347.97;;;16.69;66.95
54270;BME280;40181;51.560;13.000;2022-09-01T08:28:24;101349.72;;;16.80;67.16
54270;BME280;40181;51.560;13.000;2022-09-01T08:30:53;101347.06;;;16.84;66.54
54270;BME280;40181;51.560;13.000;2022-09-01T08:33:23;101354.16;;;16.81;66.61
54270;BME280;40181;51.560;13.000;2022-09-01T08:35:56;101350.66;;;17.04;66.43
54270;BME280;40181;51.560;13.000;2022-09-01T08:38:24;101345.34;;;17.13;65.94
54270;BME280;40181;51.560;13.000;2022-09-01T08:40:54;101354.16;;;17.26;65.13
54270;BME280;40181;51.560;13.000;2022-09-01T08:43:28;101342.63;;;17.36;65.19
54270;BME280;40181;51.560;13.000;2022-09-01T08:46:06;101352.38;;;17.44;66.14
54270;BME280;40181;51.560;13.000;2022-09-01T08:48:42;101347.91;;;17.50;63.68
54270;BME280;40181;51.560;13.000;2022-09-01T08:51:17;101355.00;;;17.53;64.35
54270;BME280;40181;51.560;13.000;2022-09-01T08:53:53;101337.25;;;17.60;64.02
54270;BME280;40181;51.560;13.000;2022-09-01T08:56:26;101335.47;;;17.60;62.92
54270;BME280;40181;51.560;13.000;2022-09-01T08:58:55;101338.97;;;17.73;64.79
54270;BME280;40181;51.560;13.000;2022-09-01T09:01:30;101331.00;;;17.70;61.36
54270;BME280;40181;51.560;13.000;2022-09-01T09:04:07;101330.94;;;17.87;62.19
54270;BME280;40181;51.560;13.000;2022-09-01T09:06:55;101336.22;;;17.93;61.85
54270;BME280;40181;51.560;13.000;2022-09-01T09:09:30;101335.28;;;18.11;61.87
54270;BME280;40181;51.560;13.000;2022-09-01T09:15:09;101334.25;;;18.37;60.96
54270;BME280;40181;51.560;13.000;2022-09-01T09:17:45;101338.31;;;18.84;60.21
54270;BME280;40181;51.560;13.000;2022-09-01T09:20:23;101325.00;;;18.85;59.15
54270;BME280;40181;51.560;13.000;2022-09-01T09:22:54;101330.28;;;18.91;60.60
54270;BME280;40181;51.560;13.000;2022-09-01T09:25:23;101331.13;;;18.95;57.51
54270;BME280;40181;51.560;13.000;2022-09-01T09:27:55;101340.91;;;18.94;56.48
54270;BME280;40181;51.560;13.000;2022-09-01T09:30:24;101323.78;;;19.22;57.55
54270;BME280;40181;51.560;13.000;2022-09-01T09:32:56;101329.81;;;19.40;57.48
54270;BME280;40181;51.560;13.000;2022-09-01T09:35:29;101328.69;;;19.62;55.53
54270;BME280;40181;51.560;13.000;2022-09-01T09:40:54;101319.53;;;19.82;51.92
54270;BME280;40181;51.560;13.000;2022-09-01T09:43:28;101315.91;;;19.89;53.69
54270;BME280;40181;51.560;13.000;2022-09-01T09:48:47;101313.72;;;20.23;51.75
54270;BME280;40181;51.560;13.000;2022-09-01T09:51:19;101324.66;;;20.02;50.38
54270;BME280;40181;51.560;13.000;2022-09-01T09:53:52;101315.81;;;20.00;50.81
54270;BME280;40181;51.560;13.000;2022-09-01T09:56:39;101320.03;;;20.17;52.59
54270;BME280;40181;51.560;13.000;2022-09-01T09:59:22;101318.84;;;20.34;54.03
54270;BME280;40181;51.560;13.000;2022-09-01T10:01:56;101315.25;;;20.36;49.65
54270;BME280;40181;51.560;13.000;2022-09-01T10:04:33;101317.69;;;20.53;49.79
54270;BME280;40181;51.560;13.000;2022-09-01T10:09:55;101313.47;;;20.93;45.77
54270;BME280;40181;51.560;13.000;2022-09-01T10:12:25;101308.19;;;20.89;48.53
54270;BME280;40181;51.560;13.000;2022-09-01T10:14:55;101303.50;;;21.03;49.36
54270;BME280;40181;51.560;13.000;2022-09-01T10:17:27;101309.53;;;21.14;49.46
54270;BME280;40181;51.560;13.000;2022-09-01T10:19:59;101302.25;;;21.23;46.76
54270;BME280;40181;51.560;13.000;2022-09-01T10:22:31;101304.41;;;21.49;49.21
54270;BME280;40181;51.560;13.000;2022-09-01T10:25:05;101301.69;;;21.51;44.45
54270;BME280;40181;51.560;13.000;2022-09-01T10:27:36;101305.16;;;21.56;42.62
54270;BME280;40181;51.560;13.000;2022-09-01T10:30:06;101298.81;;;21.62;44.23
54270;BME280;40181;51.560;13.000;2022-09-01T10:32:39;101295.78;;;21.79;45.78
54270;BME280;40181;51.560;13.000;2022-09-01T10:35:11;101296.03;;;21.68;44.07
54270;BME280;40181;51.560;13.000;2022-09-01T10:37:44;101296.19;;;22.01;46.61
54270;BME280;40181;51.560;13.000;2022-09-01T10:40:19;101290.50;;;21.76;44.02
54270;BME280;40181;51.560;13.000;2022-09-01T10:45:52;101285.28;;;22.48;47.20
54270;BME280;40181;51.560;13.000;2022-09-01T10:48:23;101288.66;;;22.58;46.69
54270;BME280;40181;51.560;13.000;2022-09-01T10:53:53;101285.25;;;22.51;41.46
54270;BME280;40181;51.560;13.000;2022-09-01T10:56:26;101283.91;;;22.68;42.92
54270;BME280;40181;51.560;13.000;2022-09-01T10:59:07;101280.88;;;22.46;41.28
54270;BME280;40181;51.560;13.000;2022-09-01T11:07:40;101291.13;;;21.89;40.84
54270;BME280;40181;51.560;13.000;2022-09-01T11:10:16;101277.53;;;21.98;41.02
54270;BME280;40181;51.560;13.000;2022-09-01T11:13:01;101280.94;;;22.06;40.74
54270;BME280;40181;51.560;13.000;2022-09-01T11:15:51;101290.44;;;22.20;39.33
54270;BME280;40181;51.560;13.000;2022-09-01T11:18:23;101284.41;;;22.10;38.67
54270;BME280;40181;51.560;13.000;2022-09-01T11:20:53;101276.16;;;22.19;38.84
54270;BME280;40181;51.560;13.000;2022-09-01T11:23:23;101281.53;;;22.18;40.57
54270;BME280;40181;51.560;13.000;2022-09-01T11:25:55;101273.25;;;22.30;40.67
54270;BME280;40181;51.560;13.000;2022-09-01T11:31:18;101280.25;;;22.36;40.89
54270;BME280;40181;51.560;13.000;2022-09-01T11:33:52;101280.19;;;22.00;41.51
54270;BME280;40181;51.560;13.000;2022-09-01T11:36:46;101268.06;;;21.85;41.35
54270;BME280;40181;51.560;13.000;2022-09-01T11:39:23;101278.75;;;22.22;43.50
54270;BME280;40181;51.560;13.000;2022-09-01T11:42:05;101272.38;;;22.28;42.07
54270;BME280;40181;51.560;13.000;2022-09-01T11:44:44;101276.38;;;22.11;40.84
54270;BME280;40181;51.560;13.000;2022-09-01T11:47:17;101283.34;;;22.17;42.59
54270;BME280;40181;51.560;13.000;2022-09-01T11:49:50;101277.00;;;22.21;41.37
54270;BME280;40181;51.560;13.000;2022-09-01T11:52:21;101273.75;;;22.08;40.34
54270;BME280;40181;51.560;13.000;2022-09-01T11:54:54;101276.88;;;22.26;40.92
54270;BME280;40181;51.560;13.000;2022-09-01T11:57:25;101277.34;;;22.07;40.30
54270;BME280;40181;51.560;13.000;2022-09-01T11:59:59;101277.00;;;22.61;38.87
54270;BME280;40181;51.560;13.000;2022-09-01T12:02:31;101261.25;;;22.47;38.93
54270;BME280;40181;51.560;13.000;2022-09-01T12:05:02;101271.28;;;22.37;40.99
54270;BME280;40181;51.560;13.000;2022-09-01T12:07:50;101265.84;;;22.40;38.51
54270;BME280;40181;51.560;13.000;2022-09-01T12:10:19;101269.97;;;22.55;40.17
54270;BME280;40181;51.560;13.000;2022-09-01T12:12:58;101278.13;;;22.49;39.65
54270;BME280;40181;51.560;13.000;2022-09-01T12:15:31;101280.53;;;22.61;40.59
54270;BME280;40181;51.560;13.000;2022-09-01T12:18:12;101277.13;;;22.55;39.00
54270;BME280;40181;51.560;13.000;2022-09-01T12:20:44;101271.53;;;22.26;38.21
54270;BME280;40181;51.560;13.000;2022-09-01T12:23:16;101275.34;;;22.17;39.14
54270;BME280;40181;51.560;13.000;2022-09-01T12:25:46;101275.69;;;22.39;40.86
54270;BME280;40181;51.560;13.000;2022-09-01T12:28:15;101272.22;;;22.36;39.76
54270;BME280;40181;51.560;13.000;2022-09-01T12:30:47;101270.84;;;22.18;39.06
54270;BME280;40181;51.560;13.000;2022-09-01T12:33:17;101272.78;;;22.11;38.72
54270;BME280;40181;51.560;13.000;2022-09-01T12:35:46;101265.25;;;22.29;41.01
54270;BME280;40181;51.560;13.000;2022-09-01T12:38:22;101252.81;;;22.26;40.95
54270;BME280;40181;51.560;13.000;2022-09-01T12:40:53;101260.56;;;22.37;41.23
54270;BME280;40181;51.560;13.000;2022-09-01T12:43:26;101256.19;;;22.33;39.87
54270;BME280;40181;51.560;13.000;2022-09-01T12:45:59;101266.75;;;22.41;39.82
54270;BME280;40181;51.560;13.000;2022-09-01T12:48:29;101263.78;;;22.53;40.99
54270;BME280;40181;51.560;13.000;2022-09-01T12:50:59;101264.28;;;22.69;41.62
54270;BME280;40181;51.560;13.000;2022-09-01T12:53:31;101256.53;;;22.58;39.95
54270;BME280;40181;51.560;13.000;2022-09-01T12:56:04;101255.81;;;22.12;39.37
54270;BME280;40181;51.560;13.000;2022-09-01T12:58:46;101253.03;;;22.55;40.84
54270;BME280;40181;51.560;13.000;2022-09-01T13:01:31;101258.03;;;22.31;39.26
54270;BME280;40181;51.560;13.000;2022-09-01T13:04:05;101252.88;;;22.24;40.20
54270;BME280;40181;51.560;13.000;2022-09-01T13:06:39;101253.38;;;22.03;39.12
54270;BME280;40181;51.560;13.000;2022-09-01T13:09:08;101249.19;;;22.29;40.04
54270;BME280;40181;51.560;13.000;2022-09-01T13:11:37;101237.56;;;22.30;41.91
54270;BME280;40181;51.560;13.000;2022-09-01T13:14:06;101237.66;;;22.27;39.94
54270;BME280;40181;51.560;13.000;2022-09-01T13:16:38;101242.03;;;22.29;40.08
54270;BME280;40181;51.560;13.000;2022-09-01T13:19:07;101244.78;;;22.26;40.75
54270;BME280;40181;51.560;13.000;2022-09-01T13:21:36;101241.63;;;22.45;40.44
54270;BME280;40181;51.560;13.000;2022-09-01T13:24:05;101237.84;;;22.55;40.87
54270;BME280;40181;51.560;13.000;2022-09-01T13:26:34;101228.19;;;22.48;39.87
54270;BME280;40181;51.560;13.000;2022-09-01T13:29:03;101241.72;;;22.42;38.83